createdAt,value
2023-01-28T00:00:58.356Z,0.66
2023-01-28T00:06:03.139Z,0.50
2023-01-28T00:11:11.024Z,0.43
2023-01-28T00:16:14.759Z,0.35
2023-01-28T00:21:17.190Z,0.34
2023-01-28T00:26:19.376Z,0.27
2023-01-28T00:31:24.722Z,0.21
2023-01-28T00:36:28.242Z,0.13
2023-01-28T00:41:30.354Z,0.00
2023-01-28T00:46:33.793Z,-0.04
2023-01-28T00:51:36.028Z,0.12
2023-01-28T00:56:38.148Z,0.08
2023-01-28T01:01:42.118Z,-0.08
2023-01-28T01:06:44.269Z,-0.15
2023-01-28T01:11:46.486Z,-0.16
2023-01-28T01:16:49.951Z,-0.18
2023-01-28T01:21:52.307Z,-0.21
2023-01-28T01:26:54.584Z,-0.26
2023-01-28T01:31:58.166Z,-0.25
2023-01-28T01:37:00.283Z,-0.28
2023-01-28T01:42:02.731Z,-0.35
2023-01-28T01:47:06.786Z,-0.38
2023-01-28T01:52:12.488Z,-0.43
2023-01-28T01:57:20.075Z,-0.36
2023-01-28T02:02:24.304Z,-0.31
2023-01-28T02:07:27.527Z,-0.31
2023-01-28T02:12:34.239Z,-0.24
2023-01-28T02:17:38.919Z,-0.11
2023-01-28T02:23:07.366Z,-0.09
2023-01-28T02:28:20.203Z,-0.12
2023-01-28T02:33:31.305Z,-0.10
2023-01-28T02:38:39.937Z,-0.20
2023-01-28T02:43:45.663Z,-0.05
2023-01-28T02:48:47.876Z,-0.09
2023-01-28T02:53:57.918Z,-0.09
2023-01-28T02:59:06.575Z,-0.17
2023-01-28T03:04:15.510Z,-0.02
2023-01-28T03:09:19.754Z,-0.02
2023-01-28T03:14:25.306Z,-0.15
2023-01-28T03:19:27.424Z,-0.16
2023-01-28T03:24:33.656Z,-0.20
2023-01-28T03:29:37.956Z,-0.23
2023-01-28T03:34:40.413Z,-0.18
2023-01-28T03:39:42.433Z,-0.19
2023-01-28T03:44:45.932Z,-0.23
2023-01-28T03:49:49.850Z,-0.21
2023-01-28T03:54:51.995Z,-0.19
2023-01-28T03:59:55.515Z,-0.21
2023-01-28T04:04:57.459Z,-0.16
2023-01-28T04:09:59.139Z,-0.24
2023-01-28T04:15:02.538Z,-0.29
2023-01-28T04:20:05.258Z,-0.30
2023-01-28T04:25:08.119Z,-0.31
2023-01-28T04:30:12.423Z,-0.29
2023-01-28T04:35:15.074Z,-0.29
2023-01-28T04:40:17.887Z,-0.27
2023-01-28T04:45:21.536Z,-0.30
2023-01-28T04:50:23.670Z,-0.27
2023-01-28T04:55:25.835Z,-0.24
2023-01-28T05:00:29.392Z,-0.23
2023-01-28T05:05:31.540Z,-0.29
2023-01-28T05:10:33.531Z,-0.12
2023-01-28T05:15:37.573Z,-0.01
2023-01-28T05:20:39.696Z,-0.09
2023-01-28T05:25:41.969Z,-0.13
2023-01-28T05:30:45.658Z,-0.11
2023-01-28T05:35:47.779Z,-0.02
2023-01-28T05:40:50.013Z,-0.08
2023-01-28T05:45:53.198Z,-0.09
2023-01-28T05:50:55.427Z,-0.11
2023-01-28T05:55:57.423Z,-0.12
2023-01-28T06:01:00.537Z,-0.15
2023-01-28T06:06:02.310Z,-0.23
2023-01-28T06:11:04.309Z,-0.22
2023-01-28T06:16:08.220Z,-0.23
2023-01-28T06:21:10.342Z,-0.29
2023-01-28T06:26:12.555Z,-0.25
2023-01-28T06:31:16.052Z,-0.25
2023-01-28T06:36:18.047Z,-0.30
2023-01-28T06:41:20.114Z,-0.31
2023-01-28T06:46:23.206Z,-0.34
2023-01-28T06:51:24.885Z,-0.34
2023-01-28T06:56:26.611Z,-0.31
2023-01-28T07:01:30.428Z,-0.29
2023-01-28T07:06:32.184Z,-0.26
2023-01-28T07:11:33.979Z,-0.24
2023-01-28T07:16:37.093Z,-0.16
2023-01-28T07:21:39.222Z,-0.04
2023-01-28T07:26:41.220Z,-0.02
2023-01-28T07:31:44.718Z,0.16
2023-01-28T07:36:46.902Z,0.15
2023-01-28T07:41:49.148Z,0.42
2023-01-28T07:46:52.402Z,0.66
2023-01-28T07:51:54.204Z,0.75
2023-01-28T07:56:56.299Z,0.86
2023-01-28T08:01:59.382Z,1.06
2023-01-28T08:07:01.105Z,1.17
2023-01-28T08:12:03.295Z,1.24
2023-01-28T08:17:06.941Z,1.16
2023-01-28T08:22:08.674Z,1.25
2023-01-28T08:27:10.665Z,1.21
2023-01-28T08:32:13.839Z,1.41
2023-01-28T08:37:15.524Z,1.29
2023-01-28T08:42:19.545Z,1.26
2023-01-28T08:47:22.642Z,1.27
2023-01-28T08:52:24.349Z,1.13
2023-01-28T08:57:26.484Z,1.31
2023-01-28T09:02:32.212Z,1.31
2023-01-28T09:07:35.233Z,1.44
2023-01-28T09:12:37.848Z,1.53
2023-01-28T09:17:41.116Z,1.54
2023-01-28T09:22:42.962Z,1.64
2023-01-28T09:27:45.429Z,1.30
2023-01-28T09:32:51.711Z,1.15
2023-01-28T09:37:57.354Z,1.48
2023-01-28T09:43:15.029Z,1.55
2023-01-28T09:48:21.738Z,1.62
2023-01-28T09:53:27.769Z,1.85
2023-01-28T09:58:30.380Z,1.89
2023-01-28T10:03:47.771Z,2.24
2023-01-28T10:09:13.595Z,2.53
2023-01-28T10:14:27.001Z,2.41
2023-01-28T10:19:33.678Z,2.53
2023-01-28T10:24:40.179Z,1.94
2023-01-28T10:29:42.384Z,2.09
2023-01-28T10:34:46.050Z,2.12
2023-01-28T10:39:48.222Z,2.50
2023-01-28T10:44:51.438Z,2.27
2023-01-28T10:49:59.499Z,2.41
2023-01-28T10:55:03.877Z,2.56
2023-01-28T11:00:22.078Z,2.11
2023-01-28T11:05:27.714Z,2.38
2023-01-28T11:10:32.398Z,2.20
2023-01-28T11:15:34.844Z,2.18
2023-01-28T11:20:42.706Z,2.27
2023-01-28T11:25:44.603Z,2.49
2023-01-28T11:30:53.274Z,2.41
2023-01-28T11:36:03.907Z,2.23
2023-01-28T11:41:05.993Z,2.10
2023-01-28T11:46:21.394Z,1.96
2023-01-28T11:51:36.885Z,2.03
2023-01-28T11:56:53.513Z,1.88
2023-01-28T12:02:38.368Z,2.02
2023-01-28T12:07:47.685Z,1.88
2023-01-28T12:13:07.085Z,2.05
2023-01-28T12:18:22.320Z,2.16
2023-01-28T12:23:35.891Z,2.15
2023-01-28T12:28:54.118Z,2.14
2023-01-28T12:34:16.919Z,2.10
2023-01-28T12:39:34.853Z,1.95
2023-01-28T12:44:43.710Z,1.94
2023-01-28T12:49:50.793Z,1.83
2023-01-28T12:54:59.574Z,1.79
2023-01-28T13:00:16.209Z,1.87
2023-01-28T13:05:25.367Z,1.89
2023-01-28T13:10:36.019Z,1.91
2023-01-28T13:15:42.399Z,1.84
2023-01-28T13:20:49.467Z,1.86
2023-01-28T13:25:54.404Z,1.97
2023-01-28T13:31:03.131Z,2.05
2023-01-28T13:36:21.120Z,1.93
2023-01-28T13:41:24.455Z,1.99
2023-01-28T13:46:45.135Z,1.89
2023-01-28T13:58:42.237Z,1.75
2023-01-28T14:10:40.483Z,1.79
2023-01-28T14:21:50.911Z,1.68
2023-01-28T14:27:01.664Z,1.74
2023-01-28T14:32:06.103Z,1.77
2023-01-28T14:42:57.844Z,1.83
2023-01-28T15:06:45.005Z,1.59
2023-01-28T15:11:50.696Z,1.55
2023-01-28T15:16:54.972Z,1.39
2023-01-28T15:22:26.006Z,1.47
2023-01-28T15:27:29.968Z,1.31
2023-01-28T15:32:33.197Z,1.22
2023-01-28T15:37:35.716Z,1.17
2023-01-28T15:42:37.675Z,1.18
2023-01-28T15:47:40.918Z,1.07
2023-01-28T15:52:43.293Z,1.02
2023-01-28T15:57:45.136Z,0.96
2023-01-28T16:02:50.265Z,0.92
2023-01-28T16:07:53.624Z,0.93
2023-01-28T16:13:05.121Z,0.89
2023-01-28T16:18:22.798Z,0.89
2023-01-28T16:23:27.342Z,0.83
2023-01-28T16:28:29.695Z,0.86
2023-01-28T16:33:33.333Z,0.95
2023-01-28T16:38:35.374Z,0.72
2023-01-28T16:43:37.335Z,0.64
2023-01-28T16:48:40.699Z,0.59
2023-01-28T16:53:43.663Z,0.83
2023-01-28T16:58:46.966Z,0.67
2023-01-28T17:03:50.225Z,0.60
2023-01-28T17:08:53.372Z,0.63
2023-01-28T17:13:55.601Z,0.51
2023-01-28T17:18:58.707Z,0.67
2023-01-28T17:24:01.081Z,0.53
2023-01-28T17:29:03.826Z,0.60
2023-01-28T17:34:06.934Z,0.59
2023-01-28T17:39:09.393Z,0.59
2023-01-28T17:44:13.856Z,0.61
2023-01-28T17:49:18.503Z,0.60
2023-01-28T17:54:23.725Z,0.48
2023-01-28T17:59:26.638Z,0.49
2023-01-28T18:04:30.168Z,0.34
2023-01-28T18:09:31.871Z,0.23
2023-01-28T18:14:34.285Z,0.17
2023-01-28T18:19:46.606Z,0.14
2023-01-28T18:24:48.329Z,0.14
2023-01-28T18:29:50.135Z,0.07
2023-01-28T18:34:53.617Z,0.03
2023-01-28T18:39:56.132Z,-0.18
2023-01-28T18:44:59.274Z,-0.42
2023-01-28T18:50:04.287Z,-0.65
2023-01-28T18:55:07.317Z,-0.81
2023-01-28T19:00:10.946Z,-0.91
2023-01-28T19:05:14.384Z,-0.93
2023-01-28T19:10:16.529Z,-0.91
2023-01-28T19:15:18.522Z,-0.93
2023-01-28T19:20:21.815Z,-1.00
2023-01-28T19:25:51.479Z,-1.08
2023-01-28T19:30:53.273Z,-1.12
2023-01-28T19:42:10.467Z,-1.12
2023-01-28T19:47:12.654Z,-1.15
2023-01-28T19:52:14.585Z,-1.21
2023-01-28T19:57:17.667Z,-1.35
2023-01-28T20:02:19.450Z,-1.50
2023-01-28T20:07:39.673Z,-1.62
2023-01-28T20:12:42.952Z,-1.69
2023-01-28T20:17:44.813Z,-1.79
2023-01-28T20:22:47.235Z,-1.76
2023-01-28T20:27:50.763Z,-1.81
2023-01-28T20:32:52.539Z,-1.78
2023-01-28T20:38:16.440Z,-1.88
2023-01-28T20:43:50.355Z,-2.01
2023-01-28T20:54:35.452Z,-2.30
2023-01-28T20:59:38.767Z,-2.31
2023-01-28T21:04:41.043Z,-2.26
2023-01-28T21:09:43.253Z,-2.17
2023-01-28T21:14:46.399Z,-2.11
2023-01-28T21:20:07.889Z,-2.05
2023-01-28T21:25:23.132Z,-2.14
2023-01-28T21:30:26.999Z,-2.22
2023-01-28T21:41:57.197Z,-2.56
2023-01-28T21:47:18.973Z,-2.60
2023-01-28T21:52:26.557Z,-2.64
2023-01-28T21:57:28.394Z,-2.66
2023-01-28T22:02:44.255Z,-2.76
2023-01-28T22:07:48.419Z,-2.82
2023-01-28T22:12:51.312Z,-2.88
2023-01-28T22:17:54.736Z,-2.90
2023-01-28T22:22:56.820Z,-2.79
2023-01-28T22:27:58.653Z,-2.68
2023-01-28T22:33:01.759Z,-2.60
2023-01-28T22:38:19.929Z,-2.40
2023-01-28T22:43:21.637Z,-2.24
2023-01-28T22:48:25.343Z,-2.11
2023-01-28T22:53:27.438Z,-2.05
2023-01-28T22:58:31.534Z,-2.04
2023-01-28T23:03:36.114Z,-2.08
2023-01-28T23:08:37.863Z,-2.21
2023-01-28T23:13:39.842Z,-2.21
2023-01-28T23:18:43.005Z,-2.20
2023-01-28T23:23:44.791Z,-2.23
2023-01-28T23:28:46.589Z,-2.17
2023-01-28T23:33:50.155Z,-2.17
2023-01-28T23:38:52.331Z,-1.99
2023-01-28T23:43:54.750Z,-1.88
2023-01-28T23:48:58.389Z,-1.76
2023-01-28T23:54:00.537Z,-1.68
2023-01-28T23:59:03.006Z,-1.62
